createdAt,value
2022-11-21T00:01:59.865Z,8.67
2022-11-21T00:04:08.624Z,6.87
2022-11-21T00:06:19.148Z,8.70
2022-11-21T00:08:28.138Z,8.73
2022-11-21T00:10:38.282Z,6.20
2022-11-21T00:12:47.636Z,7.40
2022-11-21T00:14:56.638Z,6.13
2022-11-21T00:17:05.426Z,6.73
2022-11-21T00:19:14.309Z,10.20
2022-11-21T00:21:24.718Z,7.50
2022-11-21T00:23:33.724Z,5.70
2022-11-21T00:25:42.711Z,8.30
2022-11-21T00:27:51.692Z,7.03
2022-11-21T00:30:00.361Z,6.03
2022-11-21T00:32:09.722Z,4.27
2022-11-21T00:34:18.330Z,6.00
2022-11-21T00:36:28.615Z,5.80
2022-11-21T00:38:37.696Z,7.77
2022-11-21T00:40:46.554Z,8.53
2022-11-21T00:42:55.348Z,8.27
2022-11-21T00:45:05.117Z,6.13
2022-11-21T00:47:14.319Z,5.43
2022-11-21T00:49:23.413Z,9.30
2022-11-21T00:51:33.349Z,11.10
2022-11-21T00:53:42.430Z,11.00
2022-11-21T00:55:51.700Z,13.23
2022-11-21T00:58:00.745Z,10.23
2022-11-21T01:00:10.416Z,10.43
2022-11-21T01:02:19.382Z,8.77
2022-11-21T01:04:28.691Z,11.93
2022-11-21T01:06:41.197Z,9.50
2022-11-21T01:08:49.799Z,11.50
2022-11-21T01:10:58.539Z,10.20
2022-11-21T01:13:07.563Z,10.80
2022-11-21T01:15:16.257Z,11.50
2022-11-21T01:17:25.433Z,10.63
2022-11-21T01:19:34.151Z,12.87
2022-11-21T01:21:44.255Z,10.27
2022-11-21T01:23:53.767Z,10.33
2022-11-21T01:26:06.042Z,9.57
2022-11-21T01:28:14.938Z,11.10
2022-11-21T01:30:24.286Z,11.43
2022-11-21T01:32:33.645Z,7.53
2022-11-21T01:34:42.972Z,9.20
2022-11-21T01:36:53.743Z,10.80
2022-11-21T01:39:03.525Z,8.03
2022-11-21T01:41:12.900Z,7.83
2022-11-21T01:43:21.494Z,9.33
2022-11-21T01:45:48.894Z,8.27
2022-11-21T01:47:58.137Z,9.47
2022-11-21T01:50:11.802Z,8.60
2022-11-21T01:52:25.771Z,8.00
2022-11-21T01:54:37.633Z,7.70
2022-11-21T01:56:49.567Z,9.87
2022-11-21T01:59:00.184Z,9.17
2022-11-21T02:01:09.397Z,8.87
2022-11-21T02:03:20.448Z,10.47
2022-11-21T02:05:30.887Z,8.10
2022-11-21T02:07:43.749Z,9.73
2022-11-21T02:09:54.855Z,10.27
2022-11-21T02:12:05.289Z,9.23
2022-11-21T02:14:14.275Z,9.00
2022-11-21T02:16:23.249Z,9.63
2022-11-21T02:18:32.195Z,10.23
2022-11-21T02:20:43.965Z,9.87
2022-11-21T02:22:58.133Z,9.33
2022-11-21T02:25:11.069Z,11.23
2022-11-21T02:27:20.471Z,9.73
2022-11-21T02:29:29.682Z,12.83
2022-11-21T02:31:38.405Z,9.93
2022-11-21T02:33:47.184Z,9.10
2022-11-21T02:36:02.789Z,9.23
2022-11-21T02:38:15.953Z,7.97
2022-11-21T02:40:28.550Z,8.80
2022-11-21T02:42:39.363Z,8.77
2022-11-21T02:44:51.312Z,7.87
2022-11-21T02:47:00.291Z,10.53
2022-11-21T02:49:10.287Z,7.43
2022-11-21T02:51:19.638Z,10.87
2022-11-21T02:53:28.523Z,8.50
2022-11-21T02:55:38.996Z,10.17
2022-11-21T02:57:47.917Z,10.10
2022-11-21T02:59:56.753Z,10.67
2022-11-21T03:02:06.129Z,10.60
2022-11-21T03:04:15.120Z,9.80
2022-11-21T03:06:24.427Z,9.13
2022-11-21T03:08:33.564Z,10.77
2022-11-21T03:10:44.048Z,7.40
2022-11-21T03:13:01.351Z,10.27
2022-11-21T03:15:11.963Z,9.63
2022-11-21T03:17:20.907Z,10.00
2022-11-21T03:19:29.687Z,10.33
2022-11-21T03:21:38.657Z,8.60
2022-11-21T03:23:47.930Z,7.63
2022-11-21T03:25:58.371Z,8.53
2022-11-21T03:28:07.445Z,9.37
2022-11-21T03:30:16.850Z,9.57
2022-11-21T03:32:26.032Z,10.57
2022-11-21T03:34:34.660Z,7.60
2022-11-21T03:36:43.747Z,8.20
2022-11-21T03:38:52.692Z,8.43
2022-11-21T03:41:27.189Z,8.27
2022-11-21T03:43:36.007Z,9.40
2022-11-21T03:45:45.090Z,10.23
2022-11-21T03:47:54.243Z,7.50
2022-11-21T03:50:03.393Z,9.23
2022-11-21T03:52:12.714Z,8.23
2022-11-21T03:54:21.635Z,9.00
2022-11-21T03:56:32.290Z,10.67
2022-11-21T03:58:41.296Z,10.87
2022-11-21T04:00:50.621Z,8.97
2022-11-21T04:02:59.525Z,9.03
2022-11-21T04:05:08.540Z,9.60
2022-11-21T04:07:18.084Z,10.60
2022-11-21T04:09:26.782Z,9.70
2022-11-21T04:11:37.366Z,8.37
2022-11-21T04:13:46.293Z,14.43
2022-11-21T04:15:54.882Z,9.03
2022-11-21T04:18:03.996Z,7.03
2022-11-21T04:20:13.578Z,9.00
2022-11-21T04:22:22.507Z,10.03
2022-11-21T04:24:32.195Z,8.63
2022-11-21T04:26:43.378Z,9.00
2022-11-21T04:28:52.610Z,8.83
2022-11-21T04:31:10.005Z,8.60
2022-11-21T04:33:20.501Z,7.83
2022-11-21T04:35:29.853Z,8.07
2022-11-21T04:37:41.152Z,8.47
2022-11-21T04:39:49.908Z,9.67
2022-11-21T04:42:00.529Z,9.67
2022-11-21T04:44:09.362Z,8.57
2022-11-21T04:46:18.239Z,8.03
2022-11-21T04:48:27.011Z,7.27
2022-11-21T04:50:35.933Z,7.13
2022-11-21T04:52:45.016Z,7.60
2022-11-21T04:54:53.610Z,6.70
2022-11-21T04:57:03.713Z,6.13
2022-11-21T04:59:13.454Z,7.73
2022-11-21T05:01:22.350Z,7.57
2022-11-21T05:03:31.757Z,8.13
2022-11-21T05:05:40.885Z,8.73
2022-11-21T05:07:49.534Z,8.57
2022-11-21T05:09:58.744Z,10.17
2022-11-21T05:12:26.891Z,9.27
2022-11-21T05:14:35.865Z,8.13
2022-11-21T05:16:44.746Z,8.20
2022-11-21T05:18:53.776Z,10.23
2022-11-21T05:21:03.319Z,8.97
2022-11-21T05:23:12.209Z,12.67
2022-11-21T05:25:21.206Z,9.03
2022-11-21T05:27:32.217Z,7.80
2022-11-21T05:29:41.482Z,9.13
2022-11-21T05:31:50.863Z,9.60
2022-11-21T05:33:59.796Z,8.87
2022-11-21T05:36:09.146Z,8.90
2022-11-21T05:38:17.960Z,9.00
2022-11-21T05:40:27.261Z,6.90
2022-11-21T05:42:58.469Z,6.80
2022-11-21T05:45:07.786Z,7.40
2022-11-21T05:47:17.048Z,7.17
2022-11-21T05:49:25.698Z,7.60
2022-11-21T05:51:34.584Z,7.33
2022-11-21T05:53:43.669Z,6.97
2022-11-21T05:55:52.636Z,7.03
2022-11-21T05:58:03.045Z,7.23
2022-11-21T06:00:12.713Z,7.87
2022-11-21T06:02:39.519Z,5.27
2022-11-21T06:04:48.811Z,6.90
2022-11-21T06:06:57.593Z,6.30
2022-11-21T06:09:06.933Z,5.40
2022-11-21T06:11:16.557Z,5.73
2022-11-21T06:13:26.871Z,8.23
2022-11-21T06:15:36.004Z,6.03
2022-11-21T06:17:44.878Z,5.63
2022-11-21T06:19:54.474Z,6.47
2022-11-21T06:22:03.058Z,5.20
2022-11-21T06:24:12.526Z,6.23
2022-11-21T06:26:21.994Z,5.30
2022-11-21T06:28:34.825Z,6.83
2022-11-21T06:30:43.431Z,7.53
2022-11-21T06:32:52.224Z,7.17
2022-11-21T06:35:01.212Z,5.47
2022-11-21T06:37:10.262Z,6.57
2022-11-21T06:39:19.210Z,6.40
2022-11-21T06:41:30.549Z,4.90
2022-11-21T06:43:41.663Z,5.53
2022-11-21T06:45:50.279Z,5.07
2022-11-21T06:47:59.123Z,6.40
2022-11-21T06:50:08.345Z,5.40
2022-11-21T06:52:16.893Z,5.43
2022-11-21T06:54:25.772Z,4.77
2022-11-21T06:56:34.830Z,4.43
2022-11-21T06:58:45.766Z,8.10
2022-11-21T07:00:54.610Z,4.97
2022-11-21T07:03:03.776Z,5.10
2022-11-21T07:05:12.810Z,5.20
2022-11-21T07:07:21.924Z,5.73
2022-11-21T07:09:33.691Z,4.17
2022-11-21T07:11:43.165Z,4.60
2022-11-21T07:13:52.843Z,2.87
2022-11-21T07:16:03.480Z,2.90
2022-11-21T07:18:12.288Z,3.67
2022-11-21T07:20:21.152Z,4.80
2022-11-21T07:22:30.113Z,4.80
2022-11-21T07:24:38.987Z,2.10
2022-11-21T07:26:47.639Z,3.33
2022-11-21T07:28:58.256Z,3.40
2022-11-21T07:31:12.979Z,2.43
2022-11-21T07:33:22.747Z,3.53
2022-11-21T07:35:32.088Z,2.80
2022-11-21T07:37:41.358Z,2.10
2022-11-21T07:39:50.318Z,3.87
2022-11-21T07:41:59.055Z,3.83
2022-11-21T07:44:10.593Z,1.60
2022-11-21T07:46:20.110Z,2.47
2022-11-21T07:48:28.802Z,2.30
2022-11-21T07:50:37.961Z,2.30
2022-11-21T07:52:46.902Z,2.87
2022-11-21T07:54:56.026Z,4.60
2022-11-21T07:57:05.194Z,2.33
2022-11-21T07:59:15.949Z,2.87
2022-11-21T08:01:24.932Z,3.93
2022-11-21T08:03:33.691Z,4.17
2022-11-21T08:05:43.314Z,5.40
2022-11-21T08:07:52.469Z,4.30
2022-11-21T08:10:01.521Z,7.17
2022-11-21T08:12:10.371Z,5.87
2022-11-21T08:14:21.255Z,8.97
2022-11-21T08:16:33.341Z,7.20
2022-11-21T08:18:42.673Z,5.70
2022-11-21T08:20:51.745Z,6.80
2022-11-21T08:23:00.828Z,5.20
2022-11-21T08:25:10.438Z,6.67
2022-11-21T08:27:21.504Z,4.47
2022-11-21T08:29:32.020Z,5.43
2022-11-21T08:31:41.096Z,7.57
2022-11-21T08:33:50.064Z,6.93
2022-11-21T08:35:58.996Z,6.77
2022-11-21T08:38:08.517Z,2.77
2022-11-21T08:40:17.849Z,4.97
2022-11-21T08:42:26.114Z,5.87
2022-11-21T08:44:36.767Z,6.47
2022-11-21T08:46:45.440Z,5.43
2022-11-21T08:48:54.470Z,5.33
2022-11-21T08:51:03.347Z,6.13
2022-11-21T08:53:12.249Z,6.03
2022-11-21T08:55:23.208Z,5.93
2022-11-21T08:57:32.184Z,8.37
2022-11-21T08:59:42.594Z,6.00
2022-11-21T09:01:53.345Z,5.47
2022-11-21T09:04:02.721Z,5.17
2022-11-21T09:06:12.746Z,4.90
2022-11-21T09:08:21.786Z,6.77
2022-11-21T09:10:30.965Z,4.07
2022-11-21T09:12:39.891Z,5.57
2022-11-21T09:15:07.460Z,6.80
2022-11-21T09:17:34.403Z,6.53
2022-11-21T09:19:43.626Z,4.67
2022-11-21T09:21:53.004Z,5.53
2022-11-21T09:24:02.283Z,2.47
2022-11-21T09:26:11.378Z,4.60
2022-11-21T09:28:20.354Z,6.27
2022-11-21T09:30:30.957Z,6.23
2022-11-21T09:32:40.458Z,6.10
2022-11-21T09:34:49.805Z,5.37
2022-11-21T09:36:58.539Z,4.60
2022-11-21T09:39:07.573Z,6.63
2022-11-21T09:41:37.917Z,4.60
2022-11-21T09:43:55.527Z,5.27
2022-11-21T09:46:12.576Z,8.57
2022-11-21T09:48:22.959Z,4.90
2022-11-21T09:50:33.253Z,5.03
2022-11-21T09:52:43.854Z,7.07
2022-11-21T09:54:56.108Z,5.60
2022-11-21T09:57:05.151Z,4.97
2022-11-21T09:59:25.400Z,6.87
2022-11-21T10:01:36.121Z,7.03
2022-11-21T10:03:47.381Z,6.47
2022-11-21T10:05:57.606Z,8.10
2022-11-21T10:08:10.163Z,6.17
2022-11-21T10:10:22.238Z,5.10
2022-11-21T10:12:40.663Z,4.80
2022-11-21T10:14:53.577Z,6.80
2022-11-21T10:17:09.416Z,6.90
2022-11-21T10:19:27.878Z,7.57
2022-11-21T10:21:44.952Z,7.67
2022-11-21T10:24:02.342Z,7.63
2022-11-21T10:26:18.888Z,7.83
2022-11-21T10:28:33.275Z,6.40
2022-11-21T10:30:43.443Z,7.47
2022-11-21T10:32:56.944Z,7.90
2022-11-21T10:35:13.762Z,7.07
2022-11-21T10:37:29.834Z,6.07
2022-11-21T10:39:40.833Z,8.47
2022-11-21T10:41:52.791Z,6.97
2022-11-21T10:44:21.610Z,8.30
2022-11-21T10:46:30.476Z,5.47
2022-11-21T10:48:41.127Z,7.60
2022-11-21T10:50:56.335Z,8.03
2022-11-21T10:53:28.496Z,8.33
2022-11-21T10:55:37.273Z,8.20
2022-11-21T10:57:47.157Z,6.80
2022-11-21T10:59:58.694Z,7.80
2022-11-21T11:02:23.316Z,6.23
2022-11-21T11:04:41.853Z,4.20
2022-11-21T11:06:53.149Z,6.67
2022-11-21T11:09:02.225Z,5.00
2022-11-21T11:11:15.867Z,7.50
2022-11-21T11:13:52.041Z,4.23
2022-11-21T11:16:06.716Z,5.03
2022-11-21T11:18:16.866Z,5.07
2022-11-21T11:20:38.788Z,5.53
2022-11-21T11:22:48.098Z,4.80
2022-11-21T11:25:00.482Z,3.33
2022-11-21T11:27:10.794Z,6.43
2022-11-21T11:29:21.483Z,3.27
2022-11-21T11:31:41.867Z,3.57
2022-11-21T11:33:55.009Z,5.27
2022-11-21T11:36:21.910Z,4.03
2022-11-21T11:38:33.027Z,5.60
2022-11-21T11:40:44.054Z,3.73
2022-11-21T11:43:19.272Z,4.87
2022-11-21T11:45:54.767Z,4.00
2022-11-21T11:48:06.528Z,4.40
2022-11-21T11:50:17.081Z,5.47
2022-11-21T11:52:26.654Z,3.80
2022-11-21T11:54:42.454Z,3.93
2022-11-21T11:56:52.000Z,4.03
2022-11-21T11:59:02.483Z,4.30
2022-11-21T12:01:14.470Z,3.33
2022-11-21T12:03:24.671Z,5.20
2022-11-21T12:05:33.645Z,4.07
2022-11-21T12:10:20.312Z,4.67
2022-11-21T12:12:33.037Z,4.67
2022-11-21T12:15:05.235Z,4.57
2022-11-21T12:17:14.730Z,3.73
2022-11-21T12:19:23.873Z,4.20
2022-11-21T12:21:33.507Z,2.90
2022-11-21T12:23:48.184Z,4.53
2022-11-21T12:26:03.071Z,5.87
2022-11-21T12:28:19.006Z,5.13
2022-11-21T12:30:44.663Z,3.70
2022-11-21T12:33:00.215Z,3.70
2022-11-21T12:35:25.524Z,3.03
2022-11-21T12:37:39.287Z,3.30
2022-11-21T12:39:54.673Z,1.77
2022-11-21T12:42:25.986Z,3.37
2022-11-21T12:44:43.463Z,2.80
2022-11-21T12:46:57.608Z,2.57
2022-11-21T12:49:28.323Z,2.40
2022-11-21T12:52:07.824Z,2.50
2022-11-21T12:54:35.205Z,3.37
2022-11-21T12:56:47.326Z,6.43
2022-11-21T12:58:59.083Z,4.43
2022-11-21T13:01:24.755Z,4.33
2022-11-21T13:03:42.377Z,2.90
2022-11-21T13:05:52.425Z,2.37
2022-11-21T13:08:03.626Z,2.10
2022-11-21T13:10:14.626Z,2.57
2022-11-21T13:12:27.822Z,2.70
2022-11-21T13:14:43.916Z,2.93
2022-11-21T13:16:57.324Z,2.50
2022-11-21T13:19:13.828Z,2.87
2022-11-21T13:21:48.015Z,2.40
2022-11-21T13:23:56.858Z,2.70
2022-11-21T13:26:30.356Z,2.20
2022-11-21T13:28:39.527Z,1.83
2022-11-21T13:30:50.269Z,1.97
2022-11-21T13:32:59.707Z,1.63
2022-11-21T13:35:35.028Z,2.30
2022-11-21T13:38:02.324Z,1.97
2022-11-21T13:40:26.087Z,2.50
2022-11-21T13:43:25.471Z,2.67
2022-11-21T13:45:44.145Z,2.47
2022-11-21T13:48:10.904Z,2.57
2022-11-21T13:50:24.644Z,1.90
2022-11-21T13:52:37.950Z,2.73
2022-11-21T13:55:04.963Z,3.07
2022-11-21T13:57:20.944Z,2.00
2022-11-21T13:59:38.682Z,2.60
2022-11-21T14:02:02.542Z,2.67
2022-11-21T14:04:27.355Z,3.10
2022-11-21T14:06:39.099Z,2.40
2022-11-21T14:09:06.215Z,3.33
2022-11-21T14:11:22.032Z,4.37
2022-11-21T14:13:32.171Z,3.10
2022-11-21T14:15:44.693Z,3.40
2022-11-21T14:17:55.769Z,3.70
2022-11-21T14:20:11.070Z,4.07
2022-11-21T14:22:31.897Z,4.20
2022-11-21T14:24:43.938Z,3.80
2022-11-21T14:26:54.374Z,6.05
2022-11-21T14:29:17.947Z,6.30
2022-11-21T14:31:27.208Z,4.40
2022-11-21T14:33:36.628Z,5.87
2022-11-21T14:35:49.722Z,5.90
2022-11-21T14:38:00.940Z,4.30
2022-11-21T14:40:14.403Z,4.90
2022-11-21T14:42:23.423Z,6.20
2022-11-21T14:44:32.802Z,4.43
2022-11-21T14:46:42.104Z,4.90
2022-11-21T14:48:52.278Z,5.95
2022-11-21T14:51:02.504Z,3.93
2022-11-21T14:53:14.121Z,4.70
2022-11-21T14:55:32.457Z,4.03
2022-11-21T14:57:43.610Z,4.47
2022-11-21T14:59:53.014Z,4.53
2022-11-21T15:02:04.403Z,4.10
2022-11-21T15:04:15.928Z,5.10
2022-11-21T15:06:26.752Z,6.37
2022-11-21T15:09:23.599Z,4.63
2022-11-21T15:11:10.834Z,4.33
2022-11-21T15:13:20.797Z,4.80
2022-11-21T15:15:31.809Z,4.53
2022-11-21T15:17:57.515Z,4.77
2022-11-21T15:20:20.750Z,6.47
2022-11-21T15:22:33.234Z,5.43
2022-11-21T15:24:44.673Z,7.20
2022-11-21T15:26:53.586Z,5.30
2022-11-21T15:29:03.181Z,7.93
2022-11-21T15:31:19.095Z,6.97
2022-11-21T15:33:28.398Z,11.20
2022-11-21T15:35:48.427Z,9.33
2022-11-21T15:37:57.489Z,9.73
2022-11-21T15:40:20.274Z,7.90
2022-11-21T15:42:47.175Z,10.57
2022-11-21T15:45:00.466Z,6.47
2022-11-21T15:47:10.502Z,8.10
2022-11-21T15:49:32.323Z,6.93
2022-11-21T15:52:06.240Z,8.47
2022-11-21T15:54:14.026Z,7.03
2022-11-21T15:56:24.622Z,10.33
2022-11-21T15:58:33.920Z,6.97
2022-11-21T16:00:42.754Z,11.77
2022-11-21T16:02:52.282Z,8.80
2022-11-21T16:05:01.301Z,8.30
2022-11-21T16:07:10.418Z,8.63
2022-11-21T16:09:20.269Z,7.90
2022-11-21T16:11:32.090Z,10.20
2022-11-21T16:13:41.325Z,9.53
2022-11-21T16:15:50.491Z,8.73
2022-11-21T16:17:59.802Z,10.20
2022-11-21T16:20:09.018Z,11.07
2022-11-21T16:22:18.876Z,11.73
2022-11-21T16:24:27.765Z,9.90
2022-11-21T16:26:38.092Z,10.53
2022-11-21T16:28:47.027Z,10.47
2022-11-21T16:30:56.174Z,12.67
2022-11-21T16:33:05.293Z,14.20
2022-11-21T16:35:14.633Z,11.17
2022-11-21T16:37:23.444Z,11.37
2022-11-21T16:39:32.732Z,10.23
2022-11-21T16:41:45.972Z,9.83
2022-11-21T16:43:56.027Z,8.73
2022-11-21T16:46:08.774Z,8.90
2022-11-21T16:48:17.627Z,9.53
2022-11-21T16:50:26.630Z,10.43
2022-11-21T16:52:37.199Z,12.30
2022-11-21T16:54:47.253Z,12.27
2022-11-21T16:56:58.335Z,12.27
2022-11-21T16:59:07.027Z,12.63
2022-11-21T17:01:17.065Z,13.10
2022-11-21T17:03:26.042Z,12.73
2022-11-21T17:05:34.658Z,14.03
2022-11-21T17:07:43.490Z,10.40
2022-11-21T17:09:53.315Z,13.27
2022-11-21T17:12:03.616Z,12.70
2022-11-21T17:14:14.249Z,13.83
2022-11-21T17:16:24.483Z,11.37
2022-11-21T17:18:33.100Z,13.07
2022-11-21T17:20:42.234Z,10.27
2022-11-21T17:22:51.513Z,11.43
2022-11-21T17:25:00.726Z,8.30
2022-11-21T17:27:11.518Z,11.83
2022-11-21T17:29:20.573Z,9.47
2022-11-21T17:31:30.262Z,9.43
2022-11-21T17:33:39.300Z,6.70
2022-11-21T17:35:48.144Z,9.93
2022-11-21T17:37:56.915Z,10.10
2022-11-21T17:40:07.138Z,9.10
2022-11-21T17:42:18.026Z,7.63
2022-11-21T17:44:27.676Z,8.43
2022-11-21T17:46:38.696Z,9.33
2022-11-21T17:48:54.290Z,6.27
2022-11-21T17:51:04.924Z,7.10
2022-11-21T17:53:13.965Z,5.40
2022-11-21T17:55:22.940Z,7.43
2022-11-21T17:57:33.361Z,10.67
2022-11-21T17:59:42.339Z,8.80
2022-11-21T18:01:51.503Z,7.77
2022-11-21T18:04:01.304Z,9.63
2022-11-21T18:06:11.402Z,10.63
2022-11-21T18:08:20.498Z,9.73
2022-11-21T18:10:42.841Z,9.87
2022-11-21T18:12:53.827Z,9.17
2022-11-21T18:15:02.618Z,10.20
2022-11-21T18:17:11.536Z,9.63
2022-11-21T18:19:21.167Z,11.83
2022-11-21T18:21:31.102Z,11.13
2022-11-21T18:23:40.122Z,10.77
2022-11-21T18:25:48.894Z,11.20
2022-11-21T18:28:00.225Z,9.23
2022-11-21T18:30:09.586Z,9.20
2022-11-21T18:32:18.657Z,11.17
2022-11-21T18:34:27.609Z,10.87
2022-11-21T18:36:36.713Z,8.70
2022-11-21T18:38:50.512Z,9.20
2022-11-21T18:41:06.108Z,9.60
2022-11-21T18:43:16.540Z,13.50
2022-11-21T18:45:25.374Z,10.87
2022-11-21T18:47:34.528Z,8.43
2022-11-21T18:49:43.590Z,11.07
2022-11-21T18:51:52.294Z,34.30
2022-11-21T18:54:03.399Z,30.13
2022-11-21T18:56:14.024Z,12.50
2022-11-21T18:58:24.746Z,10.93
2022-11-21T19:00:33.669Z,10.13
2022-11-21T19:02:42.644Z,12.13
2022-11-21T19:04:52.006Z,10.67
2022-11-21T19:07:01.441Z,8.87
2022-11-21T19:09:11.884Z,9.87
2022-11-21T19:11:20.917Z,8.93
2022-11-21T19:13:32.655Z,9.60
2022-11-21T19:15:43.417Z,10.83
2022-11-21T19:17:51.947Z,11.77
2022-11-21T19:20:01.292Z,10.20
2022-11-21T19:22:10.879Z,9.37
2022-11-21T19:24:19.840Z,10.33
2022-11-21T19:26:29.657Z,12.70
2022-11-21T19:28:40.551Z,9.37
2022-11-21T19:30:49.541Z,10.63
2022-11-21T19:33:00.040Z,6.27
2022-11-21T19:35:09.801Z,10.57
2022-11-21T19:37:18.602Z,9.80
2022-11-21T19:39:27.682Z,11.80
2022-11-21T19:41:37.012Z,11.80
2022-11-21T19:43:48.121Z,9.73
2022-11-21T19:45:58.263Z,10.57
2022-11-21T19:48:07.670Z,12.30
2022-11-21T19:50:17.493Z,9.93
2022-11-21T19:52:28.159Z,10.50
2022-11-21T19:54:37.809Z,8.60
2022-11-21T19:56:47.181Z,7.40
2022-11-21T19:58:58.429Z,8.57
2022-11-21T20:01:08.349Z,10.07
2022-11-21T20:03:18.170Z,9.37
2022-11-21T20:05:27.795Z,9.40
2022-11-21T20:07:37.444Z,8.97
2022-11-21T20:09:46.676Z,6.37
2022-11-21T20:11:56.783Z,9.30
2022-11-21T20:14:09.740Z,9.47
2022-11-21T20:16:21.152Z,7.30
2022-11-21T20:18:30.575Z,8.53
2022-11-21T20:20:39.177Z,8.50
2022-11-21T20:22:55.893Z,4.97
2022-11-21T20:25:08.180Z,6.60
2022-11-21T20:27:17.796Z,5.97
2022-11-21T20:29:38.022Z,7.47
2022-11-21T20:31:48.668Z,10.03
2022-11-21T20:34:00.929Z,12.23
2022-11-21T20:36:11.519Z,7.43
2022-11-21T20:38:24.378Z,6.63
2022-11-21T20:40:34.086Z,5.73
2022-11-21T20:42:43.572Z,7.43
2022-11-21T20:47:23.251Z,8.13
2022-11-21T20:49:32.822Z,7.07
2022-11-21T20:54:13.190Z,5.00
2022-11-21T20:56:22.681Z,4.60
2022-11-21T20:58:32.694Z,7.83
2022-11-21T21:00:43.516Z,6.43
2022-11-21T21:02:52.445Z,5.27
2022-11-21T21:05:01.628Z,6.37
2022-11-21T21:07:10.407Z,7.03
2022-11-21T21:09:19.272Z,6.43
2022-11-21T21:11:51.049Z,6.60
2022-11-21T21:13:57.961Z,9.30
2022-11-21T21:16:09.601Z,7.87
2022-11-21T21:18:18.721Z,6.93
2022-11-21T21:20:27.445Z,9.10
2022-11-21T21:22:37.058Z,6.13
2022-11-21T21:24:46.319Z,6.70
2022-11-21T21:26:55.104Z,7.90
2022-11-21T21:29:04.233Z,11.27
2022-11-21T21:31:15.787Z,8.87
2022-11-21T21:33:24.811Z,6.17
2022-11-21T21:35:34.436Z,7.57
2022-11-21T21:37:43.590Z,9.27
2022-11-21T21:39:52.423Z,6.87
2022-11-21T21:42:01.424Z,8.67
2022-11-21T21:44:10.477Z,4.90
2022-11-21T21:46:22.577Z,8.47
2022-11-21T21:48:31.205Z,6.73
2022-11-21T21:50:40.286Z,6.20
2022-11-21T21:52:49.471Z,6.57
2022-11-21T21:54:58.201Z,7.13
2022-11-21T21:57:06.985Z,6.47
2022-11-21T21:59:16.066Z,7.13
2022-11-21T22:01:27.501Z,5.53
2022-11-21T22:03:36.776Z,8.17
2022-11-21T22:05:46.246Z,6.87
2022-11-21T22:07:55.151Z,7.43
2022-11-21T22:10:04.449Z,7.00
2022-11-21T22:12:13.408Z,7.17
2022-11-21T22:14:23.003Z,6.57
2022-11-21T22:16:33.703Z,5.87
2022-11-21T22:18:43.201Z,6.27
2022-11-21T22:20:52.087Z,7.03
2022-11-21T22:23:00.916Z,7.07
2022-11-21T22:25:09.976Z,9.73
2022-11-21T22:27:19.129Z,5.03
2022-11-21T22:29:28.066Z,8.13
2022-11-21T22:31:39.131Z,11.57
2022-11-21T22:33:48.095Z,7.90
2022-11-21T22:36:01.386Z,4.17
2022-11-21T22:38:10.847Z,6.80
2022-11-21T22:40:20.167Z,6.10
2022-11-21T22:42:29.400Z,7.23
2022-11-21T22:44:38.462Z,6.27
2022-11-21T22:46:48.699Z,7.10
2022-11-21T22:48:57.834Z,5.63
2022-11-21T22:51:08.128Z,7.50
2022-11-21T22:53:16.856Z,4.50
2022-11-21T22:55:25.790Z,7.03
2022-11-21T22:57:35.882Z,6.03
2022-11-21T22:59:44.642Z,6.53
2022-11-21T23:01:55.581Z,7.63
2022-11-21T23:04:04.965Z,6.93
2022-11-21T23:06:15.246Z,5.20
2022-11-21T23:08:24.617Z,4.90
2022-11-21T23:10:33.589Z,6.60
2022-11-21T23:12:42.916Z,6.83
2022-11-21T23:14:52.330Z,8.90
2022-11-21T23:17:03.068Z,6.47
2022-11-21T23:19:12.278Z,5.90
2022-11-21T23:21:21.583Z,8.00
2022-11-21T23:23:30.542Z,7.00
2022-11-21T23:25:39.447Z,6.20
2022-11-21T23:27:48.356Z,6.07
2022-11-21T23:29:56.815Z,5.17
2022-11-21T23:32:07.176Z,4.97
2022-11-21T23:34:16.201Z,5.63
2022-11-21T23:36:25.422Z,6.17
2022-11-21T23:38:34.643Z,5.13
2022-11-21T23:40:43.427Z,7.00
2022-11-21T23:42:51.828Z,5.87
2022-11-21T23:45:00.421Z,5.35
2022-11-21T23:47:10.956Z,2.87
2022-11-21T23:49:19.614Z,6.37
2022-11-21T23:51:28.545Z,7.17
2022-11-21T23:53:37.215Z,5.47
2022-11-21T23:55:46.721Z,6.40
2022-11-21T23:57:56.019Z,5.00
